sensor_id;sensor_type;location;lat;lon;timestamp;P1;durP1;ratioP1;P2;durP2;ratioP2
4732;SDS011;2380;53.668;10.008;2023-03-23T00:00:54;14.03;;;6.20;;
4732;SDS011;2380;53.668;10.008;2023-03-23T00:03:24;14.53;;;6.10;;
4732;SDS011;2380;53.668;10.008;2023-03-23T00:05:55;16.50;;;7.00;;
4732;SDS011;2380;53.668;10.008;2023-03-23T00:08:28;13.90;;;7.50;;
4732;SDS011;2380;53.668;10.008;2023-03-23T00:10:58;14.77;;;8.10;;
4732;SDS011;2380;53.668;10.008;2023-03-23T00:13:28;17.77;;;8.10;;
4732;SDS011;2380;53.668;10.008;2023-03-23T00:15:59;13.40;;;7.03;;
4732;SDS011;2380;53.668;10.008;2023-03-23T00:18:29;18.10;;;7.77;;
4732;SDS011;2380;53.668;10.008;2023-03-23T00:21:02;20.13;;;7.83;;
4732;SDS011;2380;53.668;10.008;2023-03-23T00:23:36;10.87;;;6.23;;
4732;SDS011;2380;53.668;10.008;2023-03-23T00:26:05;14.57;;;9.03;;
4732;SDS011;2380;53.668;10.008;2023-03-23T00:28:38;17.80;;;9.20;;
4732;SDS011;2380;53.668;10.008;2023-03-23T00:31:09;21.73;;;9.47;;
4732;SDS011;2380;53.668;10.008;2023-03-23T00:33:39;22.17;;;10.27;;
4732;SDS011;2380;53.668;10.008;2023-03-23T00:36:10;23.10;;;11.97;;
4732;SDS011;2380;53.668;10.008;2023-03-23T00:38:44;17.53;;;9.70;;
4732;SDS011;2380;53.668;10.008;2023-03-23T00:41:13;21.00;;;11.50;;
4732;SDS011;2380;53.668;10.008;2023-03-23T00:43:43;22.83;;;12.43;;
4732;SDS011;2380;53.668;10.008;2023-03-23T00:46:14;21.70;;;13.47;;
4732;SDS011;2380;53.668;10.008;2023-03-23T00:48:46;24.17;;;12.90;;
4732;SDS011;2380;53.668;10.008;2023-03-23T00:51:17;21.73;;;12.47;;
4732;SDS011;2380;53.668;10.008;2023-03-23T00:53:49;25.70;;;14.50;;
4732;SDS011;2380;53.668;10.008;2023-03-23T00:56:19;22.67;;;10.10;;
4732;SDS011;2380;53.668;10.008;2023-03-23T00:58:50;17.43;;;9.50;;
4732;SDS011;2380;53.668;10.008;2023-03-23T01:01:19;22.53;;;11.97;;
4732;SDS011;2380;53.668;10.008;2023-03-23T01:03:49;22.70;;;12.33;;
4732;SDS011;2380;53.668;10.008;2023-03-23T01:06:19;15.50;;;8.87;;
4732;SDS011;2380;53.668;10.008;2023-03-23T01:08:51;24.60;;;12.73;;
4732;SDS011;2380;53.668;10.008;2023-03-23T01:11:22;22.20;;;12.83;;
4732;SDS011;2380;53.668;10.008;2023-03-23T01:13:53;23.00;;;12.53;;
4732;SDS011;2380;53.668;10.008;2023-03-23T01:16:22;24.03;;;12.53;;
4732;SDS011;2380;53.668;10.008;2023-03-23T01:18:52;21.73;;;12.63;;
4732;SDS011;2380;53.668;10.008;2023-03-23T01:21:22;21.53;;;12.50;;
4732;SDS011;2380;53.668;10.008;2023-03-23T01:23:55;22.80;;;12.20;;
4732;SDS011;2380;53.668;10.008;2023-03-23T01:26:28;25.93;;;11.97;;
4732;SDS011;2380;53.668;10.008;2023-03-23T01:28:57;17.43;;;11.37;;
4732;SDS011;2380;53.668;10.008;2023-03-23T01:31:27;17.60;;;10.20;;
4732;SDS011;2380;53.668;10.008;2023-03-23T01:33:57;19.90;;;12.53;;
4732;SDS011;2380;53.668;10.008;2023-03-23T01:36:27;25.27;;;12.40;;
4732;SDS011;2380;53.668;10.008;2023-03-23T01:39:03;25.13;;;14.70;;
4732;SDS011;2380;53.668;10.008;2023-03-23T01:41:34;24.77;;;12.83;;
4732;SDS011;2380;53.668;10.008;2023-03-23T01:44:07;27.23;;;15.40;;
4732;SDS011;2380;53.668;10.008;2023-03-23T01:46:57;24.90;;;15.00;;
4732;SDS011;2380;53.668;10.008;2023-03-23T01:49:27;32.30;;;14.97;;
4732;SDS011;2380;53.668;10.008;2023-03-23T01:52:00;15.93;;;8.73;;
4732;SDS011;2380;53.668;10.008;2023-03-23T01:54:35;23.03;;;13.47;;
4732;SDS011;2380;53.668;10.008;2023-03-23T01:57:06;25.03;;;15.13;;
4732;SDS011;2380;53.668;10.008;2023-03-23T01:59:37;22.13;;;10.03;;
4732;SDS011;2380;53.668;10.008;2023-03-23T02:02:08;35.10;;;14.33;;
4732;SDS011;2380;53.668;10.008;2023-03-23T02:04:39;24.50;;;14.60;;
4732;SDS011;2380;53.668;10.008;2023-03-23T02:07:10;26.50;;;15.03;;
4732;SDS011;2380;53.668;10.008;2023-03-23T02:09:44;17.73;;;9.43;;
4732;SDS011;2380;53.668;10.008;2023-03-23T02:12:14;26.30;;;14.10;;
4732;SDS011;2380;53.668;10.008;2023-03-23T02:14:44;25.90;;;16.67;;
4732;SDS011;2380;53.668;10.008;2023-03-23T02:17:15;14.60;;;8.57;;
4732;SDS011;2380;53.668;10.008;2023-03-23T02:19:56;16.43;;;10.47;;
4732;SDS011;2380;53.668;10.008;2023-03-23T02:22:51;26.67;;;15.57;;
4732;SDS011;2380;53.668;10.008;2023-03-23T02:25:46;29.90;;;13.47;;
4732;SDS011;2380;53.668;10.008;2023-03-23T02:34:38;24.47;;;13.30;;
4732;SDS011;2380;53.668;10.008;2023-03-23T02:37:09;21.30;;;12.70;;
4732;SDS011;2380;53.668;10.008;2023-03-23T02:39:43;27.90;;;15.30;;
4732;SDS011;2380;53.668;10.008;2023-03-23T02:42:15;26.83;;;10.63;;
4732;SDS011;2380;53.668;10.008;2023-03-23T02:44:46;23.37;;;14.67;;
4732;SDS011;2380;53.668;10.008;2023-03-23T02:47:18;19.23;;;10.23;;
4732;SDS011;2380;53.668;10.008;2023-03-23T02:49:52;26.03;;;14.83;;
4732;SDS011;2380;53.668;10.008;2023-03-23T02:52:26;20.83;;;13.67;;
4732;SDS011;2380;53.668;10.008;2023-03-23T02:54:57;23.90;;;15.47;;
4732;SDS011;2380;53.668;10.008;2023-03-23T02:57:28;25.03;;;12.50;;
4732;SDS011;2380;53.668;10.008;2023-03-23T03:00:06;20.67;;;12.00;;
4732;SDS011;2380;53.668;10.008;2023-03-23T03:02:39;26.23;;;16.70;;
4732;SDS011;2380;53.668;10.008;2023-03-23T03:05:15;19.50;;;11.70;;
4732;SDS011;2380;53.668;10.008;2023-03-23T03:07:49;18.80;;;11.63;;
4732;SDS011;2380;53.668;10.008;2023-03-23T03:10:26;22.93;;;14.70;;
4732;SDS011;2380;53.668;10.008;2023-03-23T03:12:59;23.47;;;14.20;;
4732;SDS011;2380;53.668;10.008;2023-03-23T03:15:33;26.83;;;14.90;;
4732;SDS011;2380;53.668;10.008;2023-03-23T03:18:08;24.20;;;15.10;;
4732;SDS011;2380;53.668;10.008;2023-03-23T03:20:45;25.67;;;14.70;;
4732;SDS011;2380;53.668;10.008;2023-03-23T03:23:17;26.87;;;14.20;;
4732;SDS011;2380;53.668;10.008;2023-03-23T03:25:49;24.67;;;16.10;;
4732;SDS011;2380;53.668;10.008;2023-03-23T03:28:19;22.00;;;15.03;;
4732;SDS011;2380;53.668;10.008;2023-03-23T03:30:52;26.80;;;16.33;;
4732;SDS011;2380;53.668;10.008;2023-03-23T03:33:23;22.97;;;14.17;;
4732;SDS011;2380;53.668;10.008;2023-03-23T03:35:57;26.67;;;15.93;;
4732;SDS011;2380;53.668;10.008;2023-03-23T03:38:28;21.23;;;14.47;;
4732;SDS011;2380;53.668;10.008;2023-03-23T03:40:57;26.17;;;14.37;;
4732;SDS011;2380;53.668;10.008;2023-03-23T03:43:27;25.53;;;13.90;;
4732;SDS011;2380;53.668;10.008;2023-03-23T03:45:57;28.13;;;15.77;;
4732;SDS011;2380;53.668;10.008;2023-03-23T03:48:26;23.90;;;14.90;;
4732;SDS011;2380;53.668;10.008;2023-03-23T03:50:59;25.20;;;15.60;;
4732;SDS011;2380;53.668;10.008;2023-03-23T03:53:29;28.00;;;15.90;;
4732;SDS011;2380;53.668;10.008;2023-03-23T03:56:00;25.57;;;15.67;;
4732;SDS011;2380;53.668;10.008;2023-03-23T03:58:31;24.43;;;13.60;;
4732;SDS011;2380;53.668;10.008;2023-03-23T04:01:02;18.03;;;10.37;;
4732;SDS011;2380;53.668;10.008;2023-03-23T04:03:32;24.07;;;13.60;;
4732;SDS011;2380;53.668;10.008;2023-03-23T04:06:05;21.97;;;12.80;;
4732;SDS011;2380;53.668;10.008;2023-03-23T04:08:36;21.30;;;15.20;;
4732;SDS011;2380;53.668;10.008;2023-03-23T04:11:07;22.90;;;14.77;;
4732;SDS011;2380;53.668;10.008;2023-03-23T04:13:58;17.63;;;8.30;;
4732;SDS011;2380;53.668;10.008;2023-03-23T04:16:28;19.07;;;10.43;;
4732;SDS011;2380;53.668;10.008;2023-03-23T04:19:02;17.43;;;10.37;;
4732;SDS011;2380;53.668;10.008;2023-03-23T04:21:35;20.40;;;13.27;;
4732;SDS011;2380;53.668;10.008;2023-03-23T04:24:05;14.00;;;8.67;;
4732;SDS011;2380;53.668;10.008;2023-03-23T04:26:55;16.87;;;10.57;;
4732;SDS011;2380;53.668;10.008;2023-03-23T04:29:28;19.30;;;10.73;;
4732;SDS011;2380;53.668;10.008;2023-03-23T04:32:00;22.50;;;14.57;;
4732;SDS011;2380;53.668;10.008;2023-03-23T04:34:30;16.87;;;10.10;;
4732;SDS011;2380;53.668;10.008;2023-03-23T04:37:04;30.50;;;13.93;;
4732;SDS011;2380;53.668;10.008;2023-03-23T04:39:35;24.37;;;14.43;;
4732;SDS011;2380;53.668;10.008;2023-03-23T04:42:06;20.40;;;14.33;;
4732;SDS011;2380;53.668;10.008;2023-03-23T04:44:38;18.80;;;12.70;;
4732;SDS011;2380;53.668;10.008;2023-03-23T04:47:09;16.80;;;10.13;;
4732;SDS011;2380;53.668;10.008;2023-03-23T04:49:39;24.93;;;13.60;;
4732;SDS011;2380;53.668;10.008;2023-03-23T04:52:11;23.63;;;13.83;;
4732;SDS011;2380;53.668;10.008;2023-03-23T04:54:41;18.90;;;13.70;;
4732;SDS011;2380;53.668;10.008;2023-03-23T04:57:10;20.37;;;12.60;;
4732;SDS011;2380;53.668;10.008;2023-03-23T04:59:41;22.37;;;13.80;;
4732;SDS011;2380;53.668;10.008;2023-03-23T05:02:11;22.70;;;14.77;;
4732;SDS011;2380;53.668;10.008;2023-03-23T05:04:44;26.30;;;15.33;;
4732;SDS011;2380;53.668;10.008;2023-03-23T05:07:18;24.57;;;13.87;;
4732;SDS011;2380;53.668;10.008;2023-03-23T05:09:48;26.80;;;14.57;;
4732;SDS011;2380;53.668;10.008;2023-03-23T05:12:18;19.10;;;12.43;;
4732;SDS011;2380;53.668;10.008;2023-03-23T05:14:48;21.90;;;14.67;;
4732;SDS011;2380;53.668;10.008;2023-03-23T05:17:18;20.30;;;12.40;;
4732;SDS011;2380;53.668;10.008;2023-03-23T05:19:50;19.57;;;13.33;;
4732;SDS011;2380;53.668;10.008;2023-03-23T05:22:22;17.87;;;12.07;;
4732;SDS011;2380;53.668;10.008;2023-03-23T05:24:52;22.07;;;13.23;;
4732;SDS011;2380;53.668;10.008;2023-03-23T05:27:22;18.30;;;11.60;;
4732;SDS011;2380;53.668;10.008;2023-03-23T05:29:54;24.53;;;14.73;;
4732;SDS011;2380;53.668;10.008;2023-03-23T05:32:24;19.77;;;13.63;;
4732;SDS011;2380;53.668;10.008;2023-03-23T05:34:57;18.10;;;11.93;;
4732;SDS011;2380;53.668;10.008;2023-03-23T05:37:29;20.47;;;12.50;;
4732;SDS011;2380;53.668;10.008;2023-03-23T05:39:59;21.87;;;14.60;;
4732;SDS011;2380;53.668;10.008;2023-03-23T05:42:32;18.17;;;12.50;;
4732;SDS011;2380;53.668;10.008;2023-03-23T05:45:02;26.77;;;9.80;;
4732;SDS011;2380;53.668;10.008;2023-03-23T05:47:32;21.53;;;12.67;;
4732;SDS011;2380;53.668;10.008;2023-03-23T05:50:01;19.23;;;13.70;;
4732;SDS011;2380;53.668;10.008;2023-03-23T05:52:35;17.43;;;10.80;;
4732;SDS011;2380;53.668;10.008;2023-03-23T05:55:05;13.30;;;7.77;;
4732;SDS011;2380;53.668;10.008;2023-03-23T05:57:36;25.97;;;13.73;;
4732;SDS011;2380;53.668;10.008;2023-03-23T06:00:06;16.67;;;10.80;;
4732;SDS011;2380;53.668;10.008;2023-03-23T06:02:46;15.83;;;10.50;;
4732;SDS011;2380;53.668;10.008;2023-03-23T06:05:17;23.60;;;10.10;;
4732;SDS011;2380;53.668;10.008;2023-03-23T06:07:49;17.80;;;10.13;;
4732;SDS011;2380;53.668;10.008;2023-03-23T06:10:18;18.27;;;10.57;;
4732;SDS011;2380;53.668;10.008;2023-03-23T06:12:49;23.03;;;10.90;;
4732;SDS011;2380;53.668;10.008;2023-03-23T06:15:18;16.43;;;11.03;;
4732;SDS011;2380;53.668;10.008;2023-03-23T06:17:48;16.43;;;9.90;;
4732;SDS011;2380;53.668;10.008;2023-03-23T06:20:22;16.77;;;7.87;;
4732;SDS011;2380;53.668;10.008;2023-03-23T06:22:54;16.53;;;9.20;;
4732;SDS011;2380;53.668;10.008;2023-03-23T06:25:24;26.53;;;9.83;;
4732;SDS011;2380;53.668;10.008;2023-03-23T06:27:55;14.83;;;9.87;;
4732;SDS011;2380;53.668;10.008;2023-03-23T06:30:24;11.50;;;8.50;;
4732;SDS011;2380;53.668;10.008;2023-03-23T06:32:55;17.67;;;12.60;;
4732;SDS011;2380;53.668;10.008;2023-03-23T06:35:24;19.00;;;9.20;;
4732;SDS011;2380;53.668;10.008;2023-03-23T06:37:57;33.43;;;10.63;;
4732;SDS011;2380;53.668;10.008;2023-03-23T06:40:27;12.90;;;7.40;;
4732;SDS011;2380;53.668;10.008;2023-03-23T06:42:57;11.33;;;8.00;;
4732;SDS011;2380;53.668;10.008;2023-03-23T06:45:27;12.97;;;9.40;;
4732;SDS011;2380;53.668;10.008;2023-03-23T06:47:56;8.70;;;5.40;;
4732;SDS011;2380;53.668;10.008;2023-03-23T06:50:26;15.20;;;7.90;;
4732;SDS011;2380;53.668;10.008;2023-03-23T06:52:58;12.60;;;7.80;;
4732;SDS011;2380;53.668;10.008;2023-03-23T06:55:28;12.40;;;7.17;;
4732;SDS011;2380;53.668;10.008;2023-03-23T06:57:57;17.87;;;6.67;;
4732;SDS011;2380;53.668;10.008;2023-03-23T07:00:27;9.50;;;6.57;;
4732;SDS011;2380;53.668;10.008;2023-03-23T07:02:57;11.27;;;5.93;;
4732;SDS011;2380;53.668;10.008;2023-03-23T07:05:27;10.67;;;6.53;;
4732;SDS011;2380;53.668;10.008;2023-03-23T07:07:59;11.73;;;5.87;;
4732;SDS011;2380;53.668;10.008;2023-03-23T07:10:29;4.90;;;3.10;;
4732;SDS011;2380;53.668;10.008;2023-03-23T07:13:00;8.87;;;5.83;;
4732;SDS011;2380;53.668;10.008;2023-03-23T07:15:29;9.00;;;6.17;;
4732;SDS011;2380;53.668;10.008;2023-03-23T07:17:59;11.40;;;6.10;;
4732;SDS011;2380;53.668;10.008;2023-03-23T07:20:28;6.70;;;4.20;;
4732;SDS011;2380;53.668;10.008;2023-03-23T07:23:01;5.30;;;3.50;;
4732;SDS011;2380;53.668;10.008;2023-03-23T07:25:31;7.50;;;3.67;;
4732;SDS011;2380;53.668;10.008;2023-03-23T07:28:02;7.67;;;4.60;;
4732;SDS011;2380;53.668;10.008;2023-03-23T07:30:32;9.93;;;6.00;;
4732;SDS011;2380;53.668;10.008;2023-03-23T07:33:03;13.30;;;6.17;;
4732;SDS011;2380;53.668;10.008;2023-03-23T07:35:33;6.87;;;3.87;;
4732;SDS011;2380;53.668;10.008;2023-03-23T07:38:06;8.47;;;3.47;;
4732;SDS011;2380;53.668;10.008;2023-03-23T07:40:36;7.07;;;4.17;;
4732;SDS011;2380;53.668;10.008;2023-03-23T07:43:06;6.70;;;3.60;;
4732;SDS011;2380;53.668;10.008;2023-03-23T07:45:36;10.70;;;5.30;;
4732;SDS011;2380;53.668;10.008;2023-03-23T07:48:08;11.73;;;4.07;;
4732;SDS011;2380;53.668;10.008;2023-03-23T07:50:46;8.80;;;4.10;;
4732;SDS011;2380;53.668;10.008;2023-03-23T07:53:18;6.23;;;2.63;;
4732;SDS011;2380;53.668;10.008;2023-03-23T07:55:49;18.13;;;7.57;;
4732;SDS011;2380;53.668;10.008;2023-03-23T07:58:19;11.27;;;6.80;;
4732;SDS011;2380;53.668;10.008;2023-03-23T08:00:48;14.73;;;7.37;;
4732;SDS011;2380;53.668;10.008;2023-03-23T08:03:19;10.47;;;5.80;;
4732;SDS011;2380;53.668;10.008;2023-03-23T08:05:49;6.53;;;4.00;;
4732;SDS011;2380;53.668;10.008;2023-03-23T08:08:22;6.83;;;1.50;;
4732;SDS011;2380;53.668;10.008;2023-03-23T08:10:51;2.50;;;1.40;;
4732;SDS011;2380;53.668;10.008;2023-03-23T08:13:21;3.97;;;2.00;;
4732;SDS011;2380;53.668;10.008;2023-03-23T08:15:51;5.30;;;2.20;;
4732;SDS011;2380;53.668;10.008;2023-03-23T08:18:20;4.93;;;2.03;;
4732;SDS011;2380;53.668;10.008;2023-03-23T08:20:51;3.80;;;0.93;;
4732;SDS011;2380;53.668;10.008;2023-03-23T08:23:23;2.80;;;0.93;;
4732;SDS011;2380;53.668;10.008;2023-03-23T08:25:53;2.17;;;0.63;;
4732;SDS011;2380;53.668;10.008;2023-03-23T08:28:22;5.87;;;1.47;;
4732;SDS011;2380;53.668;10.008;2023-03-23T08:30:52;4.20;;;1.20;;
4732;SDS011;2380;53.668;10.008;2023-03-23T08:33:22;8.07;;;1.30;;
4732;SDS011;2380;53.668;10.008;2023-03-23T08:35:55;1.53;;;0.90;;
4732;SDS011;2380;53.668;10.008;2023-03-23T08:38:27;3.93;;;1.60;;
4732;SDS011;2380;53.668;10.008;2023-03-23T08:40:57;9.77;;;3.13;;
4732;SDS011;2380;53.668;10.008;2023-03-23T08:43:29;9.20;;;3.13;;
4732;SDS011;2380;53.668;10.008;2023-03-23T08:45:58;10.00;;;2.63;;
4732;SDS011;2380;53.668;10.008;2023-03-23T08:48:33;8.90;;;3.00;;
4732;SDS011;2380;53.668;10.008;2023-03-23T08:51:03;8.83;;;2.90;;
4732;SDS011;2380;53.668;10.008;2023-03-23T08:53:37;15.00;;;4.43;;
4732;SDS011;2380;53.668;10.008;2023-03-23T08:56:09;5.43;;;2.30;;
4732;SDS011;2380;53.668;10.008;2023-03-23T08:58:40;5.60;;;1.70;;
4732;SDS011;2380;53.668;10.008;2023-03-23T09:01:09;13.60;;;3.37;;
4732;SDS011;2380;53.668;10.008;2023-03-23T09:03:39;4.90;;;2.40;;
4732;SDS011;2380;53.668;10.008;2023-03-23T09:06:10;3.17;;;1.97;;
4732;SDS011;2380;53.668;10.008;2023-03-23T09:08:42;6.23;;;2.70;;
4732;SDS011;2380;53.668;10.008;2023-03-23T09:11:12;5.10;;;2.30;;
4732;SDS011;2380;53.668;10.008;2023-03-23T09:13:41;11.50;;;2.90;;
4732;SDS011;2380;53.668;10.008;2023-03-23T09:16:11;3.20;;;2.27;;
4732;SDS011;2380;53.668;10.008;2023-03-23T09:18:41;7.10;;;2.30;;
4732;SDS011;2380;53.668;10.008;2023-03-23T09:21:10;9.83;;;2.80;;
4732;SDS011;2380;53.668;10.008;2023-03-23T09:23:47;6.60;;;2.83;;
4732;SDS011;2380;53.668;10.008;2023-03-23T09:26:16;6.60;;;2.60;;
4732;SDS011;2380;53.668;10.008;2023-03-23T09:28:46;10.63;;;4.13;;
4732;SDS011;2380;53.668;10.008;2023-03-23T09:31:18;6.33;;;2.50;;
4732;SDS011;2380;53.668;10.008;2023-03-23T09:33:48;7.33;;;2.43;;
4732;SDS011;2380;53.668;10.008;2023-03-23T09:36:22;10.77;;;3.23;;
4732;SDS011;2380;53.668;10.008;2023-03-23T09:38:55;6.77;;;2.40;;
4732;SDS011;2380;53.668;10.008;2023-03-23T09:41:39;13.43;;;3.60;;
4732;SDS011;2380;53.668;10.008;2023-03-23T09:44:21;12.00;;;2.77;;
4732;SDS011;2380;53.668;10.008;2023-03-23T09:46:56;11.17;;;2.97;;
4732;SDS011;2380;53.668;10.008;2023-03-23T09:49:29;9.73;;;2.57;;
4732;SDS011;2380;53.668;10.008;2023-03-23T09:52:08;6.80;;;2.13;;
4732;SDS011;2380;53.668;10.008;2023-03-23T09:54:43;9.57;;;2.23;;
4732;SDS011;2380;53.668;10.008;2023-03-23T09:57:16;5.57;;;1.90;;
4732;SDS011;2380;53.668;10.008;2023-03-23T09:59:59;14.97;;;2.60;;
4732;SDS011;2380;53.668;10.008;2023-03-23T10:02:32;5.53;;;1.90;;
4732;SDS011;2380;53.668;10.008;2023-03-23T10:05:23;5.80;;;2.37;;
4732;SDS011;2380;53.668;10.008;2023-03-23T10:08:00;2.50;;;1.10;;
4732;SDS011;2380;53.668;10.008;2023-03-23T10:10:37;3.70;;;1.17;;
4732;SDS011;2380;53.668;10.008;2023-03-23T10:13:14;5.93;;;1.63;;
4732;SDS011;2380;53.668;10.008;2023-03-23T10:15:49;6.20;;;1.63;;
4732;SDS011;2380;53.668;10.008;2023-03-23T10:18:20;8.00;;;2.57;;
4732;SDS011;2380;53.668;10.008;2023-03-23T10:20:53;10.70;;;2.23;;
4732;SDS011;2380;53.668;10.008;2023-03-23T10:23:34;8.40;;;1.87;;
4732;SDS011;2380;53.668;10.008;2023-03-23T10:26:21;4.90;;;1.47;;
4732;SDS011;2380;53.668;10.008;2023-03-23T10:29:08;6.00;;;1.40;;
4732;SDS011;2380;53.668;10.008;2023-03-23T10:31:41;11.10;;;2.90;;
4732;SDS011;2380;53.668;10.008;2023-03-23T10:34:13;3.10;;;1.60;;
4732;SDS011;2380;53.668;10.008;2023-03-23T10:36:55;4.33;;;1.53;;
4732;SDS011;2380;53.668;10.008;2023-03-23T10:39:29;18.10;;;2.93;;
4732;SDS011;2380;53.668;10.008;2023-03-23T10:42:03;12.77;;;2.13;;
4732;SDS011;2380;53.668;10.008;2023-03-23T10:44:34;10.53;;;1.97;;
4732;SDS011;2380;53.668;10.008;2023-03-23T10:47:05;4.53;;;1.50;;
4732;SDS011;2380;53.668;10.008;2023-03-23T10:49:37;7.83;;;1.77;;
4732;SDS011;2380;53.668;10.008;2023-03-23T10:52:12;8.10;;;2.10;;
4732;SDS011;2380;53.668;10.008;2023-03-23T10:55:01;16.30;;;2.47;;
4732;SDS011;2380;53.668;10.008;2023-03-23T10:57:38;5.53;;;1.40;;
4732;SDS011;2380;53.668;10.008;2023-03-23T11:00:16;5.80;;;1.87;;
4732;SDS011;2380;53.668;10.008;2023-03-23T11:02:56;11.93;;;2.57;;
4732;SDS011;2380;53.668;10.008;2023-03-23T11:05:34;5.87;;;1.80;;
4732;SDS011;2380;53.668;10.008;2023-03-23T11:08:10;6.50;;;1.20;;
4732;SDS011;2380;53.668;10.008;2023-03-23T11:10:41;12.00;;;2.40;;
4732;SDS011;2380;53.668;10.008;2023-03-23T11:13:19;8.33;;;1.43;;
4732;SDS011;2380;53.668;10.008;2023-03-23T11:15:51;9.47;;;1.60;;
4732;SDS011;2380;53.668;10.008;2023-03-23T11:18:21;6.27;;;2.30;;
4732;SDS011;2380;53.668;10.008;2023-03-23T11:20:53;9.93;;;2.43;;
4732;SDS011;2380;53.668;10.008;2023-03-23T11:23:27;4.27;;;1.40;;
4732;SDS011;2380;53.668;10.008;2023-03-23T11:26:00;11.13;;;2.33;;
4732;SDS011;2380;53.668;10.008;2023-03-23T11:28:36;15.50;;;2.20;;
4732;SDS011;2380;53.668;10.008;2023-03-23T11:31:07;8.90;;;1.80;;
4732;SDS011;2380;53.668;10.008;2023-03-23T11:33:39;6.77;;;1.77;;
4732;SDS011;2380;53.668;10.008;2023-03-23T11:36:11;13.43;;;2.60;;
4732;SDS011;2380;53.668;10.008;2023-03-23T11:38:42;11.50;;;2.20;;
4732;SDS011;2380;53.668;10.008;2023-03-23T11:41:13;7.63;;;1.60;;
4732;SDS011;2380;53.668;10.008;2023-03-23T11:43:52;4.23;;;1.07;;
4732;SDS011;2380;53.668;10.008;2023-03-23T11:46:26;6.70;;;1.80;;
4732;SDS011;2380;53.668;10.008;2023-03-23T11:49:02;9.80;;;2.10;;
4732;SDS011;2380;53.668;10.008;2023-03-23T11:51:49;15.90;;;2.70;;
4732;SDS011;2380;53.668;10.008;2023-03-23T11:54:21;14.83;;;3.20;;
4732;SDS011;2380;53.668;10.008;2023-03-23T11:56:54;12.33;;;3.77;;
4732;SDS011;2380;53.668;10.008;2023-03-23T11:59:31;10.43;;;1.90;;
4732;SDS011;2380;53.668;10.008;2023-03-23T12:02:05;9.17;;;2.10;;
4732;SDS011;2380;53.668;10.008;2023-03-23T12:04:55;10.20;;;1.73;;
4732;SDS011;2380;53.668;10.008;2023-03-23T12:07:31;10.30;;;1.60;;
4732;SDS011;2380;53.668;10.008;2023-03-23T12:10:11;12.03;;;2.73;;
4732;SDS011;2380;53.668;10.008;2023-03-23T12:13:12;17.10;;;2.73;;
4732;SDS011;2380;53.668;10.008;2023-03-23T12:15:52;14.13;;;2.03;;
4732;SDS011;2380;53.668;10.008;2023-03-23T12:18:36;14.30;;;1.90;;
4732;SDS011;2380;53.668;10.008;2023-03-23T12:21:11;13.53;;;2.83;;
4732;SDS011;2380;53.668;10.008;2023-03-23T12:23:47;8.40;;;2.30;;
4732;SDS011;2380;53.668;10.008;2023-03-23T12:26:21;17.87;;;2.97;;
4732;SDS011;2380;53.668;10.008;2023-03-23T12:29:11;11.60;;;2.87;;
4732;SDS011;2380;53.668;10.008;2023-03-23T12:31:53;14.80;;;2.77;;
4732;SDS011;2380;53.668;10.008;2023-03-23T12:34:31;4.50;;;1.70;;
4732;SDS011;2380;53.668;10.008;2023-03-23T12:37:11;8.13;;;2.50;;
4732;SDS011;2380;53.668;10.008;2023-03-23T12:39:54;13.13;;;3.70;;
4732;SDS011;2380;53.668;10.008;2023-03-23T12:42:43;9.90;;;1.60;;
4732;SDS011;2380;53.668;10.008;2023-03-23T12:45:19;10.57;;;2.43;;
4732;SDS011;2380;53.668;10.008;2023-03-23T12:47:57;8.60;;;2.10;;
4732;SDS011;2380;53.668;10.008;2023-03-23T12:50:30;10.53;;;2.33;;
4732;SDS011;2380;53.668;10.008;2023-03-23T12:53:03;8.77;;;2.60;;
4732;SDS011;2380;53.668;10.008;2023-03-23T12:55:39;12.30;;;3.00;;
4732;SDS011;2380;53.668;10.008;2023-03-23T12:58:12;12.13;;;3.87;;
4732;SDS011;2380;53.668;10.008;2023-03-23T13:00:53;8.80;;;2.23;;
4732;SDS011;2380;53.668;10.008;2023-03-23T13:03:30;11.17;;;3.10;;
4732;SDS011;2380;53.668;10.008;2023-03-23T13:06:04;12.07;;;3.77;;
4732;SDS011;2380;53.668;10.008;2023-03-23T13:08:36;11.00;;;3.27;;
4732;SDS011;2380;53.668;10.008;2023-03-23T13:11:09;10.27;;;4.10;;
4732;SDS011;2380;53.668;10.008;2023-03-23T13:13:46;5.13;;;2.80;;
4732;SDS011;2380;53.668;10.008;2023-03-23T13:16:24;5.50;;;2.70;;
4732;SDS011;2380;53.668;10.008;2023-03-23T13:19:02;11.63;;;3.40;;
4732;SDS011;2380;53.668;10.008;2023-03-23T13:21:38;10.73;;;4.70;;
4732;SDS011;2380;53.668;10.008;2023-03-23T13:24:13;7.67;;;3.30;;
4732;SDS011;2380;53.668;10.008;2023-03-23T13:26:44;15.43;;;5.73;;
4732;SDS011;2380;53.668;10.008;2023-03-23T13:29:17;14.80;;;4.80;;
4732;SDS011;2380;53.668;10.008;2023-03-23T13:31:51;8.30;;;3.33;;
4732;SDS011;2380;53.668;10.008;2023-03-23T13:34:24;17.83;;;6.20;;
4732;SDS011;2380;53.668;10.008;2023-03-23T13:36:56;13.50;;;3.63;;
4732;SDS011;2380;53.668;10.008;2023-03-23T13:39:27;8.97;;;2.63;;
4732;SDS011;2380;53.668;10.008;2023-03-23T13:42:01;12.00;;;3.10;;
4732;SDS011;2380;53.668;10.008;2023-03-23T13:44:41;9.23;;;3.10;;
4732;SDS011;2380;53.668;10.008;2023-03-23T13:47:21;9.60;;;2.77;;
4732;SDS011;2380;53.668;10.008;2023-03-23T13:49:57;11.87;;;3.00;;
4732;SDS011;2380;53.668;10.008;2023-03-23T13:52:37;10.40;;;1.60;;
4732;SDS011;2380;53.668;10.008;2023-03-23T13:55:18;12.53;;;3.17;;
4732;SDS011;2380;53.668;10.008;2023-03-23T13:57:51;4.70;;;1.07;;
4732;SDS011;2380;53.668;10.008;2023-03-23T14:00:25;3.90;;;1.30;;
4732;SDS011;2380;53.668;10.008;2023-03-23T14:03:11;3.33;;;1.27;;
4732;SDS011;2380;53.668;10.008;2023-03-23T14:05:47;8.20;;;2.00;;
4732;SDS011;2380;53.668;10.008;2023-03-23T14:08:21;14.07;;;3.53;;
4732;SDS011;2380;53.668;10.008;2023-03-23T14:10:53;6.23;;;1.53;;
4732;SDS011;2380;53.668;10.008;2023-03-23T14:13:29;4.13;;;1.40;;
4732;SDS011;2380;53.668;10.008;2023-03-23T14:16:02;4.50;;;1.37;;
4732;SDS011;2380;53.668;10.008;2023-03-23T14:18:35;3.50;;;1.33;;
4732;SDS011;2380;53.668;10.008;2023-03-23T14:21:13;4.77;;;1.63;;
4732;SDS011;2380;53.668;10.008;2023-03-23T14:23:44;2.67;;;1.40;;
4732;SDS011;2380;53.668;10.008;2023-03-23T14:26:15;7.30;;;1.60;;
4732;SDS011;2380;53.668;10.008;2023-03-23T14:28:49;13.33;;;2.13;;
4732;SDS011;2380;53.668;10.008;2023-03-23T14:31:23;5.73;;;1.90;;
4732;SDS011;2380;53.668;10.008;2023-03-23T14:33:54;3.80;;;1.30;;
4732;SDS011;2380;53.668;10.008;2023-03-23T14:36:28;6.27;;;2.33;;
4732;SDS011;2380;53.668;10.008;2023-03-23T14:39:00;6.00;;;2.00;;
4732;SDS011;2380;53.668;10.008;2023-03-23T14:41:34;8.20;;;2.23;;
4732;SDS011;2380;53.668;10.008;2023-03-23T14:44:05;4.30;;;1.80;;
4732;SDS011;2380;53.668;10.008;2023-03-23T14:46:37;5.00;;;1.70;;
4732;SDS011;2380;53.668;10.008;2023-03-23T14:49:07;4.40;;;2.13;;
4732;SDS011;2380;53.668;10.008;2023-03-23T14:51:49;6.40;;;1.87;;
4732;SDS011;2380;53.668;10.008;2023-03-23T14:54:21;3.40;;;1.80;;
4732;SDS011;2380;53.668;10.008;2023-03-23T14:56:51;4.73;;;2.90;;
4732;SDS011;2380;53.668;10.008;2023-03-23T14:59:21;3.93;;;1.70;;
4732;SDS011;2380;53.668;10.008;2023-03-23T15:01:51;4.53;;;1.67;;
4732;SDS011;2380;53.668;10.008;2023-03-23T15:04:21;5.37;;;1.83;;
4732;SDS011;2380;53.668;10.008;2023-03-23T15:06:58;9.87;;;1.87;;
4732;SDS011;2380;53.668;10.008;2023-03-23T15:09:30;8.03;;;1.80;;
4732;SDS011;2380;53.668;10.008;2023-03-23T15:12:00;5.50;;;2.03;;
4732;SDS011;2380;53.668;10.008;2023-03-23T15:14:32;6.10;;;2.13;;
4732;SDS011;2380;53.668;10.008;2023-03-23T15:17:02;6.77;;;2.23;;
4732;SDS011;2380;53.668;10.008;2023-03-23T15:19:32;6.67;;;1.90;;
4732;SDS011;2380;53.668;10.008;2023-03-23T15:22:06;6.33;;;1.83;;
4732;SDS011;2380;53.668;10.008;2023-03-23T15:24:42;5.77;;;1.90;;
4732;SDS011;2380;53.668;10.008;2023-03-23T15:27:15;5.83;;;1.70;;
4732;SDS011;2380;53.668;10.008;2023-03-23T15:29:47;6.97;;;1.87;;